Time,TemperatureF,DewpointF,PressureIn,WindDirection,WindDirectionDegrees,WindSpeedMPH,WindSpeedGustMPH,Humidity,HourlyPrecipIn,Conditions,Clouds,dailyrainin,SoftwareType,DateUTC
2013-10-31 00:06:00,51.8,46.8,30.23,ESE,112,1.1,-999.0,83,-99.99,,,0.00,Acu-Link.com,2013-10-31 07:06:00,
2013-10-31 00:22:00,51.6,46.6,30.22,ESE,112,3.2,-999.0,83,-99.99,,,0.00,Acu-Link.com,2013-10-31 07:22:00,
2013-10-31 00:37:00,51.4,46.4,30.22,ESE,112,1.1,-999.0,83,-99.99,,,0.00,Acu-Link.com,2013-10-31 07:37:00,
2013-10-31 00:52:00,51.4,46.4,30.23,ESE,112,1.1,-999.0,83,-99.99,,,0.00,Acu-Link.com,2013-10-31 07:52:00,
2013-10-31 01:07:00,51.3,46.0,30.23,SE,135,1.7,-999.0,82,-99.99,,,0.00,Acu-Link.com,2013-10-31 08:07:00,
2013-10-31 01:23:00,51.3,46.0,30.23,North,0,0.0,-999.0,82,-99.99,,,0.00,Acu-Link.com,2013-10-31 08:23:00,
2013-10-31 01:38:00,51.3,46.0,30.23,SSE,157,0.0,-999.0,82,-99.99,,,0.00,Acu-Link.com,2013-10-31 08:38:00,
2013-10-31 01:54:00,51.4,46.4,30.23,ESE,112,0.0,-999.0,83,-99.99,,,0.00,Acu-Link.com,2013-10-31 08:54:00,
2013-10-31 02:10:00,51.3,46.3,30.23,SE,135,0.0,-999.0,83,-99.99,,,0.00,Acu-Link.com,2013-10-31 09:10:00,
2013-10-31 02:25:00,51.4,46.1,30.23,ESE,112,1.1,-999.0,82,-99.99,,,0.00,Acu-Link.com,2013-10-31 09:25:00,
2013-10-31 02:41:00,51.4,46.1,30.22,SE,135,0.0,-999.0,82,-99.99,,,0.00,Acu-Link.com,2013-10-31 09:41:00,
2013-10-31 02:57:00,51.4,46.1,30.23,ESE,112,0.0,-999.0,82,-99.99,,,0.00,Acu-Link.com,2013-10-31 09:57:00,
2013-10-31 03:12:00,51.6,46.3,30.23,ESE,112,0.0,-999.0,82,-99.99,,,0.00,Acu-Link.com,2013-10-31 10:12:00,
2013-10-31 03:28:00,51.4,46.1,30.23,ESE,112,2.2,-999.0,82,-99.99,,,0.00,Acu-Link.com,2013-10-31 10:28:00,
2013-10-31 03:43:00,51.8,46.5,30.23,ENE,67,1.7,-999.0,82,-99.99,,,0.00,Acu-Link.com,2013-10-31 10:43:00,
2013-10-31 03:59:00,51.6,46.0,30.23,East,90,1.1,-999.0,81,-99.99,,,0.00,Acu-Link.com,2013-10-31 10:59:00,
2013-10-31 04:15:00,51.6,46.0,30.22,SE,135,2.7,-999.0,81,-99.99,,,0.00,Acu-Link.com,2013-10-31 11:15:00,
2013-10-31 04:30:00,51.8,46.5,30.22,East,90,0.0,-999.0,82,-99.99,,,0.00,Acu-Link.com,2013-10-31 11:30:00,
2013-10-31 04:45:00,51.8,46.5,30.22,ESE,112,0.0,-999.0,82,-99.99,,,0.00,Acu-Link.com,2013-10-31 11:45:00,
2013-10-31 05:00:00,51.8,46.5,30.22,East,90,0.0,-999.0,82,-99.99,,,0.00,Acu-Link.com,2013-10-31 12:00:00,
2013-10-31 05:16:00,51.8,46.2,30.23,East,90,0.0,-999.0,81,-99.99,,,0.00,Acu-Link.com,2013-10-31 12:16:00,
2013-10-31 05:31:00,52.0,46.4,30.23,ESE,112,0.0,-999.0,81,-99.99,,,0.00,Acu-Link.com,2013-10-31 12:31:00,
2013-10-31 05:46:00,52.0,46.4,30.24,ESE,112,0.0,-999.0,81,-99.99,,,0.00,Acu-Link.com,2013-10-31 12:46:00,
2013-10-31 06:01:00,52.0,46.4,30.24,ESE,112,0.0,-999.0,81,-99.99,,,0.00,Acu-Link.com,2013-10-31 13:01:00,
2013-10-31 06:16:00,52.2,46.5,30.25,East,90,0.0,-999.0,81,-99.99,,,0.00,Acu-Link.com,2013-10-31 13:16:00,
2013-10-31 06:32:00,52.2,46.5,30.24,SE,135,0.0,-999.0,81,-99.99,,,0.00,Acu-Link.com,2013-10-31 13:32:00,
2013-10-31 06:47:00,52.3,46.6,30.24,ESE,112,0.0,-999.0,81,-99.99,,,0.00,Acu-Link.com,2013-10-31 13:47:00,
2013-10-31 07:03:00,52.3,46.6,30.25,WNW,292,2.7,-999.0,81,-99.99,,,0.00,Acu-Link.com,2013-10-31 14:03:00,
2013-10-31 07:18:00,52.5,47.2,30.25,South,180,0.0,-999.0,82,-99.99,,,0.00,Acu-Link.com,2013-10-31 14:18:00,
2013-10-31 07:33:00,53.1,48.1,30.25,SSE,157,0.0,-999.0,83,-99.99,,,0.00,Acu-Link.com,2013-10-31 14:33:00,
2013-10-31 07:48:00,53.6,48.9,30.25,SE,135,0.0,-999.0,84,-99.99,,,0.00,Acu-Link.com,2013-10-31 14:48:00,
2013-10-31 08:03:00,53.8,49.1,30.26,NNE,22,0.0,-999.0,84,-99.99,,,0.00,Acu-Link.com,2013-10-31 15:03:00,
2013-10-31 08:18:00,54.1,49.7,30.23,SSE,157,3.7,-999.0,85,-99.99,,,0.00,Acu-Link.com,2013-10-31 15:18:00,
2013-10-31 08:34:00,54.3,49.9,30.24,SSE,157,1.7,-999.0,85,-99.99,,,0.00,Acu-Link.com,2013-10-31 15:34:00,
2013-10-31 08:49:00,54.3,49.9,30.26,East,90,0.0,-999.0,85,-99.99,,,0.00,Acu-Link.com,2013-10-31 15:49:00,
2013-10-31 09:04:00,54.5,49.8,30.26,West,270,0.0,-999.0,84,-99.99,,,0.00,Acu-Link.com,2013-10-31 16:04:00,
2013-10-31 09:19:00,54.7,50.0,30.27,NNW,337,0.0,-999.0,84,-99.99,,,0.00,Acu-Link.com,2013-10-31 16:19:00,
2013-10-31 09:35:00,55.0,50.3,30.27,ESE,112,0.0,-999.0,84,-99.99,,,0.00,Acu-Link.com,2013-10-31 16:35:00,
2013-10-31 09:50:00,55.2,50.5,30.27,SSE,157,0.0,-999.0,84,-99.99,,,0.00,Acu-Link.com,2013-10-31 16:50:00,
2013-10-31 10:05:00,55.4,50.0,30.26,SE,135,1.1,-999.0,82,-99.99,,,0.00,Acu-Link.com,2013-10-31 17:05:00,
2013-10-31 10:20:00,55.8,50.4,30.26,SSE,157,1.7,-999.0,82,-99.99,,,0.00,Acu-Link.com,2013-10-31 17:20:00,
2013-10-31 10:35:00,55.8,50.7,30.27,South,180,1.1,-999.0,83,-99.99,,,0.00,Acu-Link.com,2013-10-31 17:35:00,
2013-10-31 10:50:00,55.9,51.1,30.27,South,180,4.2,-999.0,84,-99.99,,,0.00,Acu-Link.com,2013-10-31 17:50:00,
2013-10-31 11:06:00,55.8,51.7,30.27,SSW,202,3.2,-999.0,86,-99.99,,,0.00,Acu-Link.com,2013-10-31 18:06:00,
2013-10-31 11:21:00,56.1,51.0,30.27,NW,315,3.2,-999.0,83,-99.99,,,0.00,Acu-Link.com,2013-10-31 18:21:00,
2013-10-31 11:36:00,56.8,51.7,30.27,SSE,157,2.7,-999.0,83,-99.99,,,0.00,Acu-Link.com,2013-10-31 18:36:00,
2013-10-31 11:51:00,57.0,51.9,30.27,South,180,5.8,-999.0,83,-99.99,,,0.00,Acu-Link.com,2013-10-31 18:51:00,
2013-10-31 12:06:00,57.9,52.8,30.27,South,180,2.2,-999.0,83,-99.99,,,0.00,Acu-Link.com,2013-10-31 19:06:00,
2013-10-31 12:22:00,57.7,52.2,30.27,SSW,202,4.2,-999.0,82,-99.99,,,0.00,Acu-Link.com,2013-10-31 19:22:00,
2013-10-31 12:37:00,58.1,53.6,30.27,SE,135,1.7,-999.0,85,-99.99,,,0.00,Acu-Link.com,2013-10-31 19:37:00,
2013-10-31 12:52:00,58.6,54.1,30.27,South,180,3.7,-999.0,85,-99.99,,,0.00,Acu-Link.com,2013-10-31 19:52:00,
2013-10-31 13:07:00,57.7,53.5,30.26,West,270,0.0,-999.0,86,-99.99,,,0.00,Acu-Link.com,2013-10-31 20:07:00,
2013-10-31 13:22:00,57.9,53.4,30.26,SE,135,2.7,-999.0,85,-99.99,,,0.00,Acu-Link.com,2013-10-31 20:22:00,
2013-10-31 13:38:00,59.5,55.3,30.26,South,180,0.0,-999.0,86,-99.99,,,0.01,Acu-Link.com,2013-10-31 20:38:00,
2013-10-31 13:53:00,58.8,54.3,30.26,SSE,157,1.1,-999.0,85,-99.99,,,0.01,Acu-Link.com,2013-10-31 20:53:00,
2013-10-31 14:08:00,59.0,54.5,30.26,South,180,1.1,-999.0,85,-99.99,,,0.01,Acu-Link.com,2013-10-31 21:08:00,
2013-10-31 14:23:00,59.4,55.2,30.26,SE,135,0.0,-999.0,86,-99.99,,,0.01,Acu-Link.com,2013-10-31 21:23:00,
2013-10-31 14:38:00,59.9,56.6,30.26,SSE,157,0.0,-999.0,89,-99.99,,,0.01,Acu-Link.com,2013-10-31 21:38:00,
2013-10-31 14:53:00,60.4,57.1,30.26,SSW,202,1.7,-999.0,89,-99.99,,,0.01,Acu-Link.com,2013-10-31 21:53:00,
2013-10-31 15:09:00,60.4,57.1,30.26,SSE,157,0.0,-999.0,89,-99.99,,,0.01,Acu-Link.com,2013-10-31 22:09:00,
2013-10-31 15:24:00,60.3,57.4,30.26,WSW,247,2.2,-999.0,90,-99.99,,,0.01,Acu-Link.com,2013-10-31 22:24:00,
2013-10-31 15:39:00,60.3,57.4,30.26,SW,225,0.0,-999.0,90,-99.99,,,0.01,Acu-Link.com,2013-10-31 22:39:00,
2013-10-31 15:54:00,60.3,57.4,30.25,SSE,157,0.0,-999.0,90,-99.99,,,0.01,Acu-Link.com,2013-10-31 22:54:00,
2013-10-31 16:09:00,60.6,57.6,30.26,WNW,292,0.0,-999.0,90,-99.99,,,0.01,Acu-Link.com,2013-10-31 23:09:00,
2013-10-31 16:25:00,59.7,56.8,30.26,WNW,292,0.0,-999.0,90,-99.99,,,0.01,Acu-Link.com,2013-10-31 23:25:00,
2013-10-31 16:40:00,59.5,55.9,30.26,NNW,337,0.0,-999.0,88,-99.99,,,0.01,Acu-Link.com,2013-10-31 23:40:00,
2013-10-31 16:55:00,59.5,55.9,30.26,WSW,247,0.0,-999.0,88,-99.99,,,0.01,Acu-Link.com,2013-10-31 23:55:00,
2013-10-31 17:10:00,59.4,56.2,30.26,West,270,0.0,-999.0,89,-99.99,,,0.01,Acu-Link.com,2013-11-01 00:10:00,
2013-10-31 17:25:00,59.2,56.0,30.25,West,270,0.0,-999.0,89,-99.99,,,0.01,Acu-Link.com,2013-11-01 00:25:00,
2013-10-31 17:41:00,59.4,56.2,30.26,West,270,0.0,-999.0,89,-99.99,,,0.01,Acu-Link.com,2013-11-01 00:41:00,
2013-10-31 17:56:00,59.4,56.2,30.25,WNW,292,0.0,-999.0,89,-99.99,,,0.01,Acu-Link.com,2013-11-01 00:56:00,
2013-10-31 18:11:00,59.0,55.8,30.25,WNW,292,0.0,-999.0,89,-99.99,,,0.01,Acu-Link.com,2013-11-01 01:11:00,
2013-10-31 18:27:00,58.6,55.4,30.26,WNW,292,0.0,-999.0,89,-99.99,,,0.01,Acu-Link.com,2013-11-01 01:27:00,
2013-10-31 18:42:00,58.3,55.1,30.26,NNE,22,0.0,-999.0,89,-99.99,,,0.01,Acu-Link.com,2013-11-01 01:42:00,
2013-10-31 18:57:00,58.3,55.1,30.26,North,0,0.0,-999.0,89,-99.99,,,0.01,Acu-Link.com,2013-11-01 01:57:00,
2013-10-31 19:12:00,58.5,55.3,30.26,North,0,0.0,-999.0,89,-99.99,,,0.01,Acu-Link.com,2013-11-01 02:12:00,
2013-10-31 19:27:00,58.6,55.7,30.26,NNE,22,0.0,-999.0,90,-99.99,,,0.01,Acu-Link.com,2013-11-01 02:27:00,
2013-10-31 19:42:00,58.6,55.7,30.27,NNE,22,0.0,-999.0,90,-99.99,,,0.01,Acu-Link.com,2013-11-01 02:42:00,
2013-10-31 19:57:00,58.8,56.2,30.27,North,0,0.0,-999.0,91,-99.99,,,0.01,Acu-Link.com,2013-11-01 02:57:00,
2013-10-31 20:13:00,59.0,56.4,30.26,NNW,337,0.0,-999.0,91,-99.99,,,0.01,Acu-Link.com,2013-11-01 03:13:00,
2013-10-31 20:28:00,58.8,56.2,30.27,North,0,1.7,-999.0,91,-99.99,,,0.01,Acu-Link.com,2013-11-01 03:28:00,
2013-10-31 20:43:00,58.8,56.2,30.28,NNW,337,0.0,-999.0,91,-99.99,,,0.01,Acu-Link.com,2013-11-01 03:43:00,
2013-10-31 20:59:00,58.8,56.2,30.27,NE,45,3.2,-999.0,91,-99.99,,,0.01,Acu-Link.com,2013-11-01 03:59:00,
2013-10-31 21:14:00,58.6,56.0,30.28,NW,315,3.7,-999.0,91,-99.99,,,0.01,Acu-Link.com,2013-11-01 04:14:00,
2013-10-31 21:29:00,58.1,55.8,30.28,NW,315,2.2,-999.0,92,-99.99,,,0.01,Acu-Link.com,2013-11-01 04:29:00,
2013-10-31 21:44:00,57.7,55.4,30.28,NNE,22,1.1,-999.0,92,-99.99,,,0.01,Acu-Link.com,2013-11-01 04:44:00,
2013-10-31 22:00:00,57.9,55.6,30.28,North,0,0.0,-999.0,92,-99.99,,,0.01,Acu-Link.com,2013-11-01 05:00:00,
2013-10-31 22:15:00,57.9,55.0,30.28,NNE,22,0.0,-999.0,90,-99.99,,,0.01,Acu-Link.com,2013-11-01 05:15:00,
2013-10-31 22:30:00,57.0,53.5,30.28,NNE,22,0.0,-999.0,88,-99.99,,,0.01,Acu-Link.com,2013-11-01 05:30:00,
2013-10-31 22:45:00,56.8,53.3,30.28,North,0,0.0,-999.0,88,-99.99,,,0.01,Acu-Link.com,2013-11-01 05:45:00,
2013-10-31 23:01:00,56.3,52.8,30.29,NNE,22,0.0,-999.0,88,-99.99,,,0.01,Acu-Link.com,2013-11-01 06:01:00,
2013-10-31 23:16:00,56.5,53.0,30.29,North,0,0.0,-999.0,88,-99.99,,,0.01,Acu-Link.com,2013-11-01 06:16:00,
2013-10-31 23:32:00,55.9,52.1,30.29,NNE,22,0.0,-999.0,87,-99.99,,,0.01,Acu-Link.com,2013-11-01 06:32:00,
2013-10-31 23:47:00,55.2,51.4,30.28,NNE,22,0.0,-999.0,87,-99.99,,,0.01,Acu-Link.com,2013-11-01 06:47:00,